Boulevard, CA (91905)

4:32 PM PST on December 04, 2016 (GMT -0800)
Tierra Del Sol | | Change Station

Elev 3710 ft 32.61 °N, 116.33 °W | Updated 2 minutes ago

Clear
Clear
60.1 °F
Feels Like 60.1 °F
N
1.0
Wind Variable Wind from West
Gusts 2.0 mph

Today
High -- | Low -- °F
--% Chance of Precip.
Yesterday
High -- | Low -- °F
Precip. -- in
Pressure 29.93 in
Visibility -9999.0 miles
Clouds
Dew Point 26 °F
Humidity 27%
Rainfall 0.00 in
Snow Depth Not available.
6:32 AM 4:38 PM
Waxing Crescent, 26% visible
METAR KCZZ 042352Z AUTO 23008KT 20/M07 A2999 RMK AO1 SLP134 T02001072 10228 20194 56005
Pressure 29.93 in
Visibility -9999.0 miles
Clouds
Dew Point 26 °F
Humidity 27%
Rainfall 0.00 in
Snow Depth Not available.
6:32 AM 4:38 PM
Waxing Crescent, 26% visible
METAR KCZZ 042352Z AUTO 23008KT 20/M07 A2999 RMK AO1 SLP134 T02001072 10228 20194 56005

10-Day Weather Forecast

Almanac

Astronomy

Dec. 04, 2016 Rise Set
Actual Time
Civil Twilight
Nautical Twilight
Astronomical Twilight
Moon
Length of Visible Light
Length of Day
Tomorrow will be .
, % of the Moon is Illuminated

Today's Extremes

State Highs State Lows

Community

WunderPhotos

Upload Photos

1,955,725 photos uploaded!

WunderBlog® & News

Nearby

Air Quality

  Air Quality AQ Index Pollutant
Not available.

Snow Depth

Station Depth Elevation

Earthquake Activity

City Distance Mag. Time & Date
Minimum magnitude displayed is 2.5.

Coastal Water Temperatures

Place Temperature

Stations

Nearby Weather Stations

Station Location Temp. Windchill Dew Point Humidity Wind Precip. Elev Updated Type
                   

Watches & Warnings

There are currently no watches in effect.